Foret Viam-Lestard (19) - K

Date : 30/06/2012
Distance : 4,100 km

Place Nom Licence Catégorie Club Temps min/km CN à J-60 Points Différence Nouveau CN
1 GUILLEMET Océane 22819 D16 3318AQ 0:42:31 10'22 4825 5641 +816 5324
2 BORNARD Julie 9402 D16 7305RA 0:47:28 11'34 4813 5053 +240 5220
3 PETER-JAN Lucile 19276 D16 3705CE 0:47:34 11'36 4865 5042 +177 4993
4 LUTHRINGER Coline 10091 D16 8809LO 0:49:17 12'01 4397 4867 +470 4919
5 PICAZO Marie 16555 D16 8405PR 0:49:36 12'05 4407 4835 +428 4614
6 BERRARD Anna 19762 D16 2607RA 0:49:38 12'06 4166 4832 +666 4462
7 BASSET Fiona 23384 D16 6911RA 0:53:34 13'03 4377 4477 +100 4689
8 FOL Loreline 16393 D16 3105MP 0:53:56 13'09 4154 4447 +293 4599
9 MOUSSU Sarah 22301 D16 3318AQ 0:54:41 13'20 3436 4386 +950 4063
10 DELENNE Camilla 13800 D16 1307PR 0:54:58 13'24 4155 4363 +208 4565
11 ROULLEAUX Julie 11559 D16 9105IF 0:55:34 13'33 5587 4316 -1271 5711
12 GIRARD Lucille 19689 D16 3705CE 0:57:26 14'00 5139 4176 -963 5353
13 FALGA Beatrice 12403 D16 6911RA 0:58:55 14'22 4003 4071 +68 4270
14 CHARDOT Marion 22315 D16 7807IF 0:59:28 14'30 3992 4033 +41 4326
15 LEMERCIER Victoire 11454 D16 5407LO 1:00:29 14'45 3712 3965 +253 3966
16 DEFIX Julia 19894 D16 4203RA 1:03:17 15'26 3587 3790 +203 3904
17 BESSON Manon 20625 D18 4201RA 1:04:45 15'47 3704 3508
18 ANGLADE Lucile 21188 D16 5604BR 1:06:23 16'11 4223 3613 -610 4379
19 DUQUENNE Audrey 23885 D16 5907NO 1:08:56 16'48 3988 3479 -509 3988
20 BISSIERE Camille 19486 D16 4709AQ 1:09:48 17'01 4148 3436 -712 4148
21 CLAUZEAU Cléa 21958 D16 1705PC 1:10:26 17'10 3554 3405 -149 3691
22 RIVOLLIER Isaline 22451 D16 4201RA 1:11:13 17'22 4507 3368 -1139 4507
23 CREUSAT Eva 23806 D16 8809LO 1:12:29 17'40 3394 3309 -85 3523
24 TRESSOL Ludivine 20533 D18 4704AQ 1:26:27 21'05 2847 2774 -73 3108
25 BERCHE Léa 24420 D16 5907NO 1:32:02 22'26 3115 2606 -509 3153
26 CAZEMAYOR Tess 22291 D16 3318AQ 1:37:04 23'40 2358 2471 +113 2830
27 PRIAT Maylis 23365 D16 2406AQ 1:39:59 24'23 1956 2399 +443 2663
28 LAURENT Manon 25577 D16 5907NO 1:43:41 25'17 2077 2313 +236 2463
29 BULLIER Alisson 23427 D16 0207PI 1:46:25 25'57 2915 2254 -661 2934
30 RIOU BENARD Clara 26494 D18 8311AZ 1:47:23 26'11 2233 2216
PERISSAT Fanette 23192 D18 7808IF pm None 1621 0 1621
nc MANDIN Mathieu 25795 H16 3705CE 0:50:58 12'25